Clayton, WA (99110)

8:21 AM PDT on September 01, 2015 (GMT -0700)
Williams valley | | Change Station
CLOSE
Current Station
Personal Weather Station
Location: Deer Park, WA
Elevation: 2178 ft
Nearby Weather Stations

Elev 2178 ft 47.95 °N, 117.58 °W | Updated 6 seconds ago

Clear
Clear
56.3 °F
Feels Like 56.3 °F
N
4.3
Wind Variable Wind from South
Gusts 4.9 mph

Today
High -- | Low -- °F
--% Chance of Precip.
Yesterday
High -- | Low -- °F
Precip. -- in
6:07 AM 7:31 PM
Waning Gibbous, 88% visible
Pressure 29.92 in
Visibility 10.0 miles
Clouds Clear
Dew Point 48 °F
Humidity 74%
Rainfall 0.00 in
Snow Depth Not available.
UV 1 out of 12
Pollen 7.50 out of 12
Air Quality Not available.
Flu Activity Not available.
METAR KDEW 011453Z AUTO 15006KT 10SM CLR 13/08 A2993 RMK AO2 SLP131 T01280078 53014
Pressure 29.92 in
Visibility 10.0 miles
Clouds Clear
Dew Point 48 °F
Humidity 74%
Rainfall 0.00 in
Snow Depth Not available.
UV 1 out of 12
Pollen 7.50 out of 12
Air Quality Not available.
Flu Activity Not available.
METAR KDEW 011453Z AUTO 15006KT 10SM CLR 13/08 A2993 RMK AO2 SLP131 T01280078 53014

10-Day Weather Forecast

×

Almanac

Astronomy

Sep. 01, 2015 Rise Set
Actual Time
Civil Twilight
Nautical Twilight
Astronomical Twilight
Moon
Length of Visible Light
Length of Day
Tomorrow will be .
, % of the Moon is Illuminated

Today's Extremes

State Highs State Lows

Community

WunderPhotos

Upload Photos

1,851,523 photos uploaded!

WunderBlogs® & News

Nearby

Air Quality

  Air Quality AQ Index Pollutant
Not available.

Snow Depth

Station Depth Elevation

Earthquake Activity

City Distance Mag. Time & Date
Minimum magnitude displayed is 2.5.

Coastal Water Temperatures

Place Temperature

Stations

Nearby Weather Stations

Station Location Temp. Windchill Dew Point Humidity Wind Precip. Elev Updated Type